sensor_id;sensor_type;location;lat;lon;timestamp;temperature;humidity
11836;DHT22;5977;51.972;7.640;2023-11-18T00:00:10;14.60;94.50
11836;DHT22;5977;51.972;7.640;2023-11-18T00:02:40;14.50;95.00
11836;DHT22;5977;51.972;7.640;2023-11-18T00:05:09;14.40;94.90
11836;DHT22;5977;51.972;7.640;2023-11-18T00:07:37;14.50;94.90
11836;DHT22;5977;51.972;7.640;2023-11-18T00:10:06;14.50;95.40
11836;DHT22;5977;51.972;7.640;2023-11-18T00:12:35;14.40;95.30
11836;DHT22;5977;51.972;7.640;2023-11-18T00:15:06;14.40;95.10
11836;DHT22;5977;51.972;7.640;2023-11-18T00:17:35;14.50;95.40
11836;DHT22;5977;51.972;7.640;2023-11-18T00:20:04;14.60;95.30
11836;DHT22;5977;51.972;7.640;2023-11-18T00:22:36;14.50;94.90
11836;DHT22;5977;51.972;7.640;2023-11-18T00:25:05;14.50;95.00
11836;DHT22;5977;51.972;7.640;2023-11-18T00:27:34;14.50;94.30
11836;DHT22;5977;51.972;7.640;2023-11-18T00:30:05;14.40;94.50
11836;DHT22;5977;51.972;7.640;2023-11-18T00:32:34;14.40;93.60
11836;DHT22;5977;51.972;7.640;2023-11-18T00:35:03;14.40;95.10
11836;DHT22;5977;51.972;7.640;2023-11-18T00:37:32;14.20;93.90
11836;DHT22;5977;51.972;7.640;2023-11-18T00:40:00;14.20;94.00
11836;DHT22;5977;51.972;7.640;2023-11-18T00:42:28;14.50;94.70
11836;DHT22;5977;51.972;7.640;2023-11-18T00:44:56;14.60;93.90
11836;DHT22;5977;51.972;7.640;2023-11-18T00:47:25;14.50;94.00
11836;DHT22;5977;51.972;7.640;2023-11-18T00:49:53;14.60;94.60
11836;DHT22;5977;51.972;7.640;2023-11-18T00:52:21;14.60;94.10
11836;DHT22;5977;51.972;7.640;2023-11-18T00:54:49;14.70;93.90
11836;DHT22;5977;51.972;7.640;2023-11-18T00:57:18;14.60;93.40
11836;DHT22;5977;51.972;7.640;2023-11-18T00:59:46;14.50;94.10
11836;DHT22;5977;51.972;7.640;2023-11-18T01:02:14;14.50;94.10
11836;DHT22;5977;51.972;7.640;2023-11-18T01:04:44;14.20;93.20
11836;DHT22;5977;51.972;7.640;2023-11-18T01:07:13;14.40;94.00
11836;DHT22;5977;51.972;7.640;2023-11-18T01:09:41;14.40;93.90
11836;DHT22;5977;51.972;7.640;2023-11-18T01:12:08;14.30;94.40
11836;DHT22;5977;51.972;7.640;2023-11-18T01:14:38;14.40;94.40
11836;DHT22;5977;51.972;7.640;2023-11-18T01:17:06;14.20;93.80
11836;DHT22;5977;51.972;7.640;2023-11-18T01:19:35;14.30;95.30
11836;DHT22;5977;51.972;7.640;2023-11-18T01:22:05;14.50;94.80
11836;DHT22;5977;51.972;7.640;2023-11-18T01:24:33;14.50;93.70
11836;DHT22;5977;51.972;7.640;2023-11-18T01:27:01;14.80;94.10
11836;DHT22;5977;51.972;7.640;2023-11-18T01:29:29;14.70;93.80
11836;DHT22;5977;51.972;7.640;2023-11-18T01:31:57;14.60;94.10
11836;DHT22;5977;51.972;7.640;2023-11-18T01:34:25;14.60;93.70
11836;DHT22;5977;51.972;7.640;2023-11-18T01:36:54;14.50;93.80
11836;DHT22;5977;51.972;7.640;2023-11-18T01:39:24;14.60;94.00
11836;DHT22;5977;51.972;7.640;2023-11-18T01:41:53;14.60;93.60
11836;DHT22;5977;51.972;7.640;2023-11-18T01:44:28;14.50;94.40
11836;DHT22;5977;51.972;7.640;2023-11-18T01:46:56;14.60;93.60
11836;DHT22;5977;51.972;7.640;2023-11-18T01:49:26;14.40;94.10
11836;DHT22;5977;51.972;7.640;2023-11-18T01:51:55;14.40;93.40
11836;DHT22;5977;51.972;7.640;2023-11-18T01:54:25;14.10;93.70
11836;DHT22;5977;51.972;7.640;2023-11-18T01:56:53;14.30;93.90
11836;DHT22;5977;51.972;7.640;2023-11-18T01:59:21;14.30;94.70
11836;DHT22;5977;51.972;7.640;2023-11-18T02:01:50;14.20;93.50
11836;DHT22;5977;51.972;7.640;2023-11-18T02:04:19;14.30;94.50
11836;DHT22;5977;51.972;7.640;2023-11-18T02:06:48;14.50;94.20
11836;DHT22;5977;51.972;7.640;2023-11-18T02:09:17;14.20;94.40
11836;DHT22;5977;51.972;7.640;2023-11-18T02:11:53;14.20;93.90
11836;DHT22;5977;51.972;7.640;2023-11-18T02:14:26;14.50;94.30
11836;DHT22;5977;51.972;7.640;2023-11-18T02:16:57;14.50;93.70
11836;DHT22;5977;51.972;7.640;2023-11-18T02:19:27;14.50;94.20
11836;DHT22;5977;51.972;7.640;2023-11-18T02:21:57;14.60;94.00
11836;DHT22;5977;51.972;7.640;2023-11-18T02:24:26;14.70;93.70
11836;DHT22;5977;51.972;7.640;2023-11-18T02:26:59;14.50;93.50
11836;DHT22;5977;51.972;7.640;2023-11-18T02:37:39;14.50;94.00
11836;DHT22;5977;51.972;7.640;2023-11-18T02:40:12;14.40;93.60
11836;DHT22;5977;51.972;7.640;2023-11-18T02:42:43;14.30;93.70
11836;DHT22;5977;51.972;7.640;2023-11-18T02:45:13;14.50;94.00
11836;DHT22;5977;51.972;7.640;2023-11-18T02:47:44;14.50;93.40
11836;DHT22;5977;51.972;7.640;2023-11-18T02:50:12;14.50;94.00
11836;DHT22;5977;51.972;7.640;2023-11-18T02:52:42;14.60;93.70
11836;DHT22;5977;51.972;7.640;2023-11-18T02:55:10;14.60;93.40
11836;DHT22;5977;51.972;7.640;2023-11-18T02:57:38;14.60;93.60
11836;DHT22;5977;51.972;7.640;2023-11-18T03:00:08;14.60;93.70
11836;DHT22;5977;51.972;7.640;2023-11-18T03:02:49;14.60;93.50
11836;DHT22;5977;51.972;7.640;2023-11-18T03:05:19;14.40;93.20
11836;DHT22;5977;51.972;7.640;2023-11-18T03:07:47;14.60;93.70
11836;DHT22;5977;51.972;7.640;2023-11-18T03:10:18;14.60;93.50
11836;DHT22;5977;51.972;7.640;2023-11-18T03:12:49;14.50;93.80
11836;DHT22;5977;51.972;7.640;2023-11-18T03:15:19;14.60;93.60
11836;DHT22;5977;51.972;7.640;2023-11-18T03:17:48;14.60;93.50
11836;DHT22;5977;51.972;7.640;2023-11-18T03:20:19;14.60;93.40
11836;DHT22;5977;51.972;7.640;2023-11-18T03:22:50;14.30;92.90
11836;DHT22;5977;51.972;7.640;2023-11-18T03:25:20;14.30;93.70
11836;DHT22;5977;51.972;7.640;2023-11-18T03:27:49;14.60;93.60
11836;DHT22;5977;51.972;7.640;2023-11-18T03:30:18;14.50;93.50
11836;DHT22;5977;51.972;7.640;2023-11-18T03:32:46;14.50;93.60
11836;DHT22;5977;51.972;7.640;2023-11-18T03:35:14;14.60;93.60
11836;DHT22;5977;51.972;7.640;2023-11-18T03:37:42;14.50;93.40
11836;DHT22;5977;51.972;7.640;2023-11-18T03:40:12;14.10;93.00
11836;DHT22;5977;51.972;7.640;2023-11-18T03:42:42;14.00;93.40
11836;DHT22;5977;51.972;7.640;2023-11-18T03:45:13;13.90;93.30
11836;DHT22;5977;51.972;7.640;2023-11-18T03:47:43;13.90;93.30
11836;DHT22;5977;51.972;7.640;2023-11-18T03:50:11;14.00;95.00
11836;DHT22;5977;51.972;7.640;2023-11-18T03:52:40;14.00;93.80
11836;DHT22;5977;51.972;7.640;2023-11-18T03:55:08;13.70;94.00
11836;DHT22;5977;51.972;7.640;2023-11-18T03:57:36;13.80;93.40
11836;DHT22;5977;51.972;7.640;2023-11-18T04:00:05;13.90;93.30
11836;DHT22;5977;51.972;7.640;2023-11-18T04:02:39;14.00;94.20
11836;DHT22;5977;51.972;7.640;2023-11-18T04:05:09;14.40;93.50
11836;DHT22;5977;51.972;7.640;2023-11-18T04:07:37;14.40;92.60
11836;DHT22;5977;51.972;7.640;2023-11-18T04:10:06;14.20;92.90
11836;DHT22;5977;51.972;7.640;2023-11-18T04:12:37;14.40;93.50
11836;DHT22;5977;51.972;7.640;2023-11-18T04:15:06;15.30;94.30
11836;DHT22;5977;51.972;7.640;2023-11-18T04:17:34;14.90;92.40
11836;DHT22;5977;51.972;7.640;2023-11-18T04:20:02;14.50;92.30
11836;DHT22;5977;51.972;7.640;2023-11-18T04:22:40;14.60;93.30
11836;DHT22;5977;51.972;7.640;2023-11-18T04:25:08;14.20;93.10
11836;DHT22;5977;51.972;7.640;2023-11-18T04:27:37;14.30;92.80
11836;DHT22;5977;51.972;7.640;2023-11-18T04:30:08;14.50;93.80
11836;DHT22;5977;51.972;7.640;2023-11-18T04:32:36;14.40;92.20
11836;DHT22;5977;51.972;7.640;2023-11-18T04:35:04;14.00;92.90
11836;DHT22;5977;51.972;7.640;2023-11-18T04:37:39;13.90;93.00
11836;DHT22;5977;51.972;7.640;2023-11-18T04:40:11;13.90;93.60
11836;DHT22;5977;51.972;7.640;2023-11-18T04:42:40;13.80;93.10
11836;DHT22;5977;51.972;7.640;2023-11-18T04:45:10;13.70;93.20
11836;DHT22;5977;51.972;7.640;2023-11-18T04:47:41;13.70;93.80
11836;DHT22;5977;51.972;7.640;2023-11-18T04:50:10;14.20;93.40
11836;DHT22;5977;51.972;7.640;2023-11-18T04:52:40;13.70;93.20
11836;DHT22;5977;51.972;7.640;2023-11-18T04:55:08;13.70;93.10
11836;DHT22;5977;51.972;7.640;2023-11-18T04:57:39;13.90;93.70
11836;DHT22;5977;51.972;7.640;2023-11-18T05:00:08;14.00;93.60
11836;DHT22;5977;51.972;7.640;2023-11-18T05:02:38;14.10;93.10
11836;DHT22;5977;51.972;7.640;2023-11-18T05:05:06;14.40;93.30
11836;DHT22;5977;51.972;7.640;2023-11-18T05:07:35;14.40;92.80
11836;DHT22;5977;51.972;7.640;2023-11-18T05:10:05;14.10;92.80
11836;DHT22;5977;51.972;7.640;2023-11-18T05:12:34;14.20;92.90
11836;DHT22;5977;51.972;7.640;2023-11-18T05:15:03;14.20;93.20
11836;DHT22;5977;51.972;7.640;2023-11-18T05:17:34;14.20;93.20
11836;DHT22;5977;51.972;7.640;2023-11-18T05:20:03;14.30;92.90
11836;DHT22;5977;51.972;7.640;2023-11-18T05:22:31;14.20;92.80
11836;DHT22;5977;51.972;7.640;2023-11-18T05:24:59;14.30;92.70
11836;DHT22;5977;51.972;7.640;2023-11-18T05:27:29;14.40;92.90
11836;DHT22;5977;51.972;7.640;2023-11-18T05:29:57;14.20;92.40
11836;DHT22;5977;51.972;7.640;2023-11-18T05:32:27;14.40;93.10
11836;DHT22;5977;51.972;7.640;2023-11-18T05:34:55;14.40;92.70
11836;DHT22;5977;51.972;7.640;2023-11-18T05:37:24;14.20;93.00
11836;DHT22;5977;51.972;7.640;2023-11-18T05:39:54;14.30;92.60
11836;DHT22;5977;51.972;7.640;2023-11-18T05:42:34;14.30;92.70
11836;DHT22;5977;51.972;7.640;2023-11-18T05:45:07;14.40;93.00
11836;DHT22;5977;51.972;7.640;2023-11-18T05:47:37;14.50;93.00
11836;DHT22;5977;51.972;7.640;2023-11-18T05:50:06;14.50;92.90
11836;DHT22;5977;51.972;7.640;2023-11-18T05:52:34;14.30;91.40
11836;DHT22;5977;51.972;7.640;2023-11-18T05:55:03;14.20;92.60
11836;DHT22;5977;51.972;7.640;2023-11-18T05:57:31;14.30;92.40
11836;DHT22;5977;51.972;7.640;2023-11-18T06:00:00;14.10;92.50
11836;DHT22;5977;51.972;7.640;2023-11-18T06:02:38;14.30;92.90
11836;DHT22;5977;51.972;7.640;2023-11-18T06:05:07;14.40;92.80
11836;DHT22;5977;51.972;7.640;2023-11-18T06:07:35;14.50;92.40
11836;DHT22;5977;51.972;7.640;2023-11-18T06:10:04;14.30;92.40
11836;DHT22;5977;51.972;7.640;2023-11-18T06:12:32;14.40;93.10
11836;DHT22;5977;51.972;7.640;2023-11-18T06:15:01;14.30;92.00
11836;DHT22;5977;51.972;7.640;2023-11-18T06:17:29;14.00;91.70
11836;DHT22;5977;51.972;7.640;2023-11-18T06:19:57;14.00;92.70
11836;DHT22;5977;51.972;7.640;2023-11-18T06:22:25;13.90;92.90
11836;DHT22;5977;51.972;7.640;2023-11-18T06:24:53;14.10;93.00
11836;DHT22;5977;51.972;7.640;2023-11-18T06:27:21;13.90;92.60
11836;DHT22;5977;51.972;7.640;2023-11-18T06:29:51;14.20;93.40
11836;DHT22;5977;51.972;7.640;2023-11-18T06:32:22;14.00;92.20
11836;DHT22;5977;51.972;7.640;2023-11-18T06:34:52;14.20;92.70
11836;DHT22;5977;51.972;7.640;2023-11-18T06:37:21;14.10;92.00
11836;DHT22;5977;51.972;7.640;2023-11-18T06:39:49;14.00;92.70
11836;DHT22;5977;51.972;7.640;2023-11-18T06:42:17;14.40;92.40
11836;DHT22;5977;51.972;7.640;2023-11-18T06:44:45;14.30;92.70
11836;DHT22;5977;51.972;7.640;2023-11-18T06:47:15;14.30;92.20
11836;DHT22;5977;51.972;7.640;2023-11-18T06:49:47;14.40;93.10
11836;DHT22;5977;51.972;7.640;2023-11-18T06:52:15;14.40;92.50
11836;DHT22;5977;51.972;7.640;2023-11-18T06:54:43;14.40;92.70
11836;DHT22;5977;51.972;7.640;2023-11-18T06:57:11;14.40;92.90
11836;DHT22;5977;51.972;7.640;2023-11-18T06:59:39;14.50;92.60
11836;DHT22;5977;51.972;7.640;2023-11-18T07:02:07;14.50;92.60
11836;DHT22;5977;51.972;7.640;2023-11-18T07:04:36;13.90;91.10
11836;DHT22;5977;51.972;7.640;2023-11-18T07:07:06;13.40;92.10
11836;DHT22;5977;51.972;7.640;2023-11-18T07:09:35;13.00;92.30
11836;DHT22;5977;51.972;7.640;2023-11-18T07:12:04;12.60;92.60
11836;DHT22;5977;51.972;7.640;2023-11-18T07:14:31;12.40;93.30
11836;DHT22;5977;51.972;7.640;2023-11-18T07:16:59;12.20;93.90
11836;DHT22;5977;51.972;7.640;2023-11-18T07:19:27;12.20;94.30
11836;DHT22;5977;51.972;7.640;2023-11-18T07:21:55;12.10;93.80
11836;DHT22;5977;51.972;7.640;2023-11-18T07:24:24;12.10;94.10
11836;DHT22;5977;51.972;7.640;2023-11-18T07:26:52;12.10;94.20
11836;DHT22;5977;51.972;7.640;2023-11-18T07:29:21;12.20;94.20
11836;DHT22;5977;51.972;7.640;2023-11-18T07:31:55;12.20;94.30
11836;DHT22;5977;51.972;7.640;2023-11-18T07:34:24;12.10;94.20
11836;DHT22;5977;51.972;7.640;2023-11-18T07:36:55;12.10;94.20
11836;DHT22;5977;51.972;7.640;2023-11-18T07:39:28;12.00;94.30
11836;DHT22;5977;51.972;7.640;2023-11-18T07:42:11;12.00;94.50
11836;DHT22;5977;51.972;7.640;2023-11-18T07:44:41;12.10;94.80
11836;DHT22;5977;51.972;7.640;2023-11-18T07:47:13;12.20;93.80
11836;DHT22;5977;51.972;7.640;2023-11-18T07:49:42;12.10;94.20
11836;DHT22;5977;51.972;7.640;2023-11-18T07:52:12;12.20;93.60
11836;DHT22;5977;51.972;7.640;2023-11-18T07:54:41;12.20;94.60
11836;DHT22;5977;51.972;7.640;2023-11-18T07:57:09;12.30;94.80
11836;DHT22;5977;51.972;7.640;2023-11-18T07:59:38;12.10;94.40
11836;DHT22;5977;51.972;7.640;2023-11-18T08:02:05;12.00;94.20
11836;DHT22;5977;51.972;7.640;2023-11-18T08:04:36;12.10;94.20
11836;DHT22;5977;51.972;7.640;2023-11-18T08:07:04;12.20;94.10
11836;DHT22;5977;51.972;7.640;2023-11-18T08:09:32;12.20;94.10
11836;DHT22;5977;51.972;7.640;2023-11-18T08:12:01;12.10;93.30
11836;DHT22;5977;51.972;7.640;2023-11-18T08:14:30;12.30;93.60
11836;DHT22;5977;51.972;7.640;2023-11-18T08:16:59;12.40;94.40
11836;DHT22;5977;51.972;7.640;2023-11-18T08:19:27;12.40;94.50
11836;DHT22;5977;51.972;7.640;2023-11-18T08:21:55;12.30;94.80
11836;DHT22;5977;51.972;7.640;2023-11-18T08:24:24;12.40;95.40
11836;DHT22;5977;51.972;7.640;2023-11-18T08:26:53;12.40;95.60
11836;DHT22;5977;51.972;7.640;2023-11-18T08:29:22;12.40;95.80
11836;DHT22;5977;51.972;7.640;2023-11-18T08:31:51;12.40;96.50
11836;DHT22;5977;51.972;7.640;2023-11-18T08:34:19;12.40;97.00
11836;DHT22;5977;51.972;7.640;2023-11-18T08:36:47;12.40;97.10
11836;DHT22;5977;51.972;7.640;2023-11-18T08:39:17;12.40;96.70
11836;DHT22;5977;51.972;7.640;2023-11-18T08:41:48;12.30;97.10
11836;DHT22;5977;51.972;7.640;2023-11-18T08:44:17;12.40;97.00
11836;DHT22;5977;51.972;7.640;2023-11-18T08:46:52;12.30;96.90
11836;DHT22;5977;51.972;7.640;2023-11-18T08:49:20;12.30;97.80
11836;DHT22;5977;51.972;7.640;2023-11-18T08:51:49;12.30;96.90
11836;DHT22;5977;51.972;7.640;2023-11-18T08:54:22;12.30;97.20
11836;DHT22;5977;51.972;7.640;2023-11-18T08:56:53;12.40;96.90
11836;DHT22;5977;51.972;7.640;2023-11-18T08:59:21;12.40;96.90
11836;DHT22;5977;51.972;7.640;2023-11-18T09:01:53;12.50;96.80
11836;DHT22;5977;51.972;7.640;2023-11-18T09:04:23;12.50;96.60
11836;DHT22;5977;51.972;7.640;2023-11-18T09:06:51;12.50;96.60
11836;DHT22;5977;51.972;7.640;2023-11-18T09:09:21;12.50;96.50
11836;DHT22;5977;51.972;7.640;2023-11-18T09:11:53;12.50;96.00
11836;DHT22;5977;51.972;7.640;2023-11-18T09:14:23;12.40;95.80
11836;DHT22;5977;51.972;7.640;2023-11-18T09:16:54;12.50;96.10
11836;DHT22;5977;51.972;7.640;2023-11-18T09:19:23;12.60;96.20
11836;DHT22;5977;51.972;7.640;2023-11-18T09:21:51;12.60;95.60
11836;DHT22;5977;51.972;7.640;2023-11-18T09:24:21;12.50;96.20
11836;DHT22;5977;51.972;7.640;2023-11-18T09:26:52;12.50;95.90
11836;DHT22;5977;51.972;7.640;2023-11-18T09:29:21;12.60;95.60
11836;DHT22;5977;51.972;7.640;2023-11-18T09:31:52;12.50;96.30
11836;DHT22;5977;51.972;7.640;2023-11-18T09:34:21;12.60;96.50
11836;DHT22;5977;51.972;7.640;2023-11-18T09:36:54;12.60;96.70
11836;DHT22;5977;51.972;7.640;2023-11-18T09:39:22;12.60;96.70
11836;DHT22;5977;51.972;7.640;2023-11-18T09:42:06;12.70;96.50
11836;DHT22;5977;51.972;7.640;2023-11-18T09:44:36;12.70;96.30
11836;DHT22;5977;51.972;7.640;2023-11-18T09:47:08;12.70;96.30
11836;DHT22;5977;51.972;7.640;2023-11-18T09:49:44;12.70;96.10
11836;DHT22;5977;51.972;7.640;2023-11-18T09:52:16;12.70;96.10
11836;DHT22;5977;51.972;7.640;2023-11-18T09:54:50;12.80;96.10
11836;DHT22;5977;51.972;7.640;2023-11-18T09:57:23;12.80;96.20
11836;DHT22;5977;51.972;7.640;2023-11-18T09:59:57;12.80;96.10
11836;DHT22;5977;51.972;7.640;2023-11-18T10:02:40;12.80;95.60
11836;DHT22;5977;51.972;7.640;2023-11-18T10:05:09;12.80;96.30
11836;DHT22;5977;51.972;7.640;2023-11-18T10:07:39;12.90;95.90
11836;DHT22;5977;51.972;7.640;2023-11-18T10:10:08;12.80;96.60
11836;DHT22;5977;51.972;7.640;2023-11-18T10:12:42;13.00;96.30
11836;DHT22;5977;51.972;7.640;2023-11-18T10:15:13;12.90;95.60
11836;DHT22;5977;51.972;7.640;2023-11-18T10:17:44;12.90;96.20
11836;DHT22;5977;51.972;7.640;2023-11-18T10:20:22;13.00;95.80
11836;DHT22;5977;51.972;7.640;2023-11-18T10:23:06;13.00;96.10
11836;DHT22;5977;51.972;7.640;2023-11-18T10:25:37;13.10;96.20
11836;DHT22;5977;51.972;7.640;2023-11-18T10:28:07;13.10;96.00
11836;DHT22;5977;51.972;7.640;2023-11-18T10:30:43;13.20;96.50
11836;DHT22;5977;51.972;7.640;2023-11-18T10:33:15;13.10;96.50
11836;DHT22;5977;51.972;7.640;2023-11-18T10:35:51;13.10;96.20
11836;DHT22;5977;51.972;7.640;2023-11-18T10:38:19;13.00;96.70
11836;DHT22;5977;51.972;7.640;2023-11-18T10:40:48;13.00;96.70
11836;DHT22;5977;51.972;7.640;2023-11-18T10:43:17;13.10;97.00
11836;DHT22;5977;51.972;7.640;2023-11-18T10:45:45;13.00;95.20
11836;DHT22;5977;51.972;7.640;2023-11-18T10:48:16;12.70;94.40
11836;DHT22;5977;51.972;7.640;2023-11-18T10:50:47;12.60;93.80
11836;DHT22;5977;51.972;7.640;2023-11-18T10:53:18;12.00;94.70
11836;DHT22;5977;51.972;7.640;2023-11-18T10:55:48;11.90;96.90
11836;DHT22;5977;51.972;7.640;2023-11-18T10:58:17;11.80;95.60
11836;DHT22;5977;51.972;7.640;2023-11-18T11:00:47;11.90;97.10
11836;DHT22;5977;51.972;7.640;2023-11-18T11:03:17;11.80;96.50
11836;DHT22;5977;51.972;7.640;2023-11-18T11:05:46;11.60;97.00
11836;DHT22;5977;51.972;7.640;2023-11-18T11:08:16;11.50;97.50
11836;DHT22;5977;51.972;7.640;2023-11-18T11:10:58;11.80;96.30
11836;DHT22;5977;51.972;7.640;2023-11-18T11:13:28;11.80;97.40
11836;DHT22;5977;51.972;7.640;2023-11-18T11:16:00;11.70;96.10
11836;DHT22;5977;51.972;7.640;2023-11-18T11:18:34;11.70;96.80
11836;DHT22;5977;51.972;7.640;2023-11-18T11:21:09;11.60;96.60
11836;DHT22;5977;51.972;7.640;2023-11-18T11:23:49;11.70;96.80
11836;DHT22;5977;51.972;7.640;2023-11-18T11:26:28;11.60;97.00
11836;DHT22;5977;51.972;7.640;2023-11-18T11:29:17;11.60;96.60
11836;DHT22;5977;51.972;7.640;2023-11-18T11:31:51;11.60;96.00
11836;DHT22;5977;51.972;7.640;2023-11-18T11:34:26;11.50;97.80
11836;DHT22;5977;51.972;7.640;2023-11-18T11:36:59;11.30;97.70
11836;DHT22;5977;51.972;7.640;2023-11-18T11:39:28;11.40;98.90
11836;DHT22;5977;51.972;7.640;2023-11-18T11:41:57;11.90;98.40
11836;DHT22;5977;51.972;7.640;2023-11-18T11:44:26;11.70;97.50
11836;DHT22;5977;51.972;7.640;2023-11-18T11:46:58;11.60;98.20
11836;DHT22;5977;51.972;7.640;2023-11-18T11:49:34;11.50;97.60
11836;DHT22;5977;51.972;7.640;2023-11-18T11:52:06;11.50;98.30
11836;DHT22;5977;51.972;7.640;2023-11-18T11:54:45;11.70;98.20
11836;DHT22;5977;51.972;7.640;2023-11-18T11:57:16;11.60;97.00
11836;DHT22;5977;51.972;7.640;2023-11-18T11:59:56;11.70;99.30
11836;DHT22;5977;51.972;7.640;2023-11-18T12:02:26;11.80;97.70
11836;DHT22;5977;51.972;7.640;2023-11-18T12:04:58;11.80;96.90
11836;DHT22;5977;51.972;7.640;2023-11-18T12:07:26;11.60;97.80
11836;DHT22;5977;51.972;7.640;2023-11-18T12:09:58;11.70;99.00
11836;DHT22;5977;51.972;7.640;2023-11-18T12:12:27;11.50;97.80
11836;DHT22;5977;51.972;7.640;2023-11-18T12:14:59;11.70;99.90
11836;DHT22;5977;51.972;7.640;2023-11-18T12:18:11;12.00;97.70
11836;DHT22;5977;51.972;7.640;2023-11-18T12:20:43;11.70;97.10
11836;DHT22;5977;51.972;7.640;2023-11-18T12:23:14;11.70;99.70
11836;DHT22;5977;51.972;7.640;2023-11-18T12:25:44;12.10;99.90
11836;DHT22;5977;51.972;7.640;2023-11-18T12:28:16;12.50;98.00
11836;DHT22;5977;51.972;7.640;2023-11-18T12:30:48;12.70;97.30
11836;DHT22;5977;51.972;7.640;2023-11-18T12:33:19;12.80;97.80
11836;DHT22;5977;51.972;7.640;2023-11-18T12:36:42;12.90;98.00
11836;DHT22;5977;51.972;7.640;2023-11-18T12:48:20;13.00;98.80
11836;DHT22;5977;51.972;7.640;2023-11-18T12:50:53;13.10;98.80
11836;DHT22;5977;51.972;7.640;2023-11-18T12:53:25;13.20;98.90
11836;DHT22;5977;51.972;7.640;2023-11-18T12:55:55;13.10;98.70
11836;DHT22;5977;51.972;7.640;2023-11-18T12:58:25;13.10;98.50
11836;DHT22;5977;51.972;7.640;2023-11-18T13:00:55;13.10;98.40
11836;DHT22;5977;51.972;7.640;2023-11-18T13:03:23;13.20;98.70
11836;DHT22;5977;51.972;7.640;2023-11-18T13:05:52;13.10;98.90
11836;DHT22;5977;51.972;7.640;2023-11-18T13:08:20;13.20;99.30
11836;DHT22;5977;51.972;7.640;2023-11-18T13:10:50;13.10;99.20
11836;DHT22;5977;51.972;7.640;2023-11-18T13:13:19;13.10;98.50
11836;DHT22;5977;51.972;7.640;2023-11-18T13:15:49;13.20;99.10
11836;DHT22;5977;51.972;7.640;2023-11-18T13:18:18;13.10;99.40
11836;DHT22;5977;51.972;7.640;2023-11-18T13:20:56;13.10;99.40
11836;DHT22;5977;51.972;7.640;2023-11-18T13:23:25;13.20;99.50
11836;DHT22;5977;51.972;7.640;2023-11-18T13:25:58;13.20;99.60
11836;DHT22;5977;51.972;7.640;2023-11-18T13:28:28;13.20;99.70
11836;DHT22;5977;51.972;7.640;2023-11-18T13:30:56;13.10;99.80
11836;DHT22;5977;51.972;7.640;2023-11-18T13:33:24;13.20;99.90
11836;DHT22;5977;51.972;7.640;2023-11-18T13:35:52;13.20;99.90
11836;DHT22;5977;51.972;7.640;2023-11-18T13:38:21;13.20;99.90
11836;DHT22;5977;51.972;7.640;2023-11-18T13:40:49;13.30;99.90
11836;DHT22;5977;51.972;7.640;2023-11-18T13:43:19;13.30;99.90
11836;DHT22;5977;51.972;7.640;2023-11-18T13:45:52;13.20;99.20
11836;DHT22;5977;51.972;7.640;2023-11-18T13:48:21;13.20;99.30
11836;DHT22;5977;51.972;7.640;2023-11-18T13:50:50;13.20;99.90
11836;DHT22;5977;51.972;7.640;2023-11-18T13:53:20;13.40;99.40
11836;DHT22;5977;51.972;7.640;2023-11-18T13:55:48;13.20;99.80
11836;DHT22;5977;51.972;7.640;2023-11-18T13:58:16;13.20;99.80
11836;DHT22;5977;51.972;7.640;2023-11-18T14:00:47;13.20;99.90
11836;DHT22;5977;51.972;7.640;2023-11-18T14:03:18;13.20;99.90
11836;DHT22;5977;51.972;7.640;2023-11-18T14:05:50;13.30;99.90
11836;DHT22;5977;51.972;7.640;2023-11-18T14:08:18;13.30;99.40
11836;DHT22;5977;51.972;7.640;2023-11-18T14:10:46;13.20;99.60
11836;DHT22;5977;51.972;7.640;2023-11-18T14:13:28;13.20;99.90
11836;DHT22;5977;51.972;7.640;2023-11-18T14:15:59;13.30;99.90
11836;DHT22;5977;51.972;7.640;2023-11-18T14:18:27;13.30;99.90
11836;DHT22;5977;51.972;7.640;2023-11-18T14:20:55;13.30;99.90
11836;DHT22;5977;51.972;7.640;2023-11-18T14:23:24;13.30;99.90
11836;DHT22;5977;51.972;7.640;2023-11-18T14:25:52;13.30;99.90
11836;DHT22;5977;51.972;7.640;2023-11-18T14:28:20;13.40;99.90
11836;DHT22;5977;51.972;7.640;2023-11-18T14:30:51;13.30;99.90
11836;DHT22;5977;51.972;7.640;2023-11-18T14:33:21;13.30;99.90
11836;DHT22;5977;51.972;7.640;2023-11-18T14:35:48;13.30;99.90
11836;DHT22;5977;51.972;7.640;2023-11-18T14:38:16;13.30;99.90
11836;DHT22;5977;51.972;7.640;2023-11-18T14:40:46;13.40;99.90
11836;DHT22;5977;51.972;7.640;2023-11-18T14:43:15;13.30;99.90
11836;DHT22;5977;51.972;7.640;2023-11-18T14:45:43;13.40;99.90
11836;DHT22;5977;51.972;7.640;2023-11-18T14:48:10;13.40;99.90
11836;DHT22;5977;51.972;7.640;2023-11-18T14:50:41;13.50;99.90
11836;DHT22;5977;51.972;7.640;2023-11-18T14:53:09;13.60;99.90
11836;DHT22;5977;51.972;7.640;2023-11-18T14:55:38;13.50;99.90
11836;DHT22;5977;51.972;7.640;2023-11-18T14:58:05;13.60;99.90
11836;DHT22;5977;51.972;7.640;2023-11-18T15:00:33;13.70;99.90
11836;DHT22;5977;51.972;7.640;2023-11-18T15:03:01;13.50;99.90
11836;DHT22;5977;51.972;7.640;2023-11-18T15:05:29;13.60;99.90
11836;DHT22;5977;51.972;7.640;2023-11-18T15:07:59;13.60;99.90
11836;DHT22;5977;51.972;7.640;2023-11-18T15:10:28;13.50;99.90
11836;DHT22;5977;51.972;7.640;2023-11-18T15:12:57;13.50;99.90
11836;DHT22;5977;51.972;7.640;2023-11-18T15:15:28;13.50;99.90
11836;DHT22;5977;51.972;7.640;2023-11-18T15:18:00;13.40;99.90
11836;DHT22;5977;51.972;7.640;2023-11-18T15:20:30;13.60;99.90
11836;DHT22;5977;51.972;7.640;2023-11-18T15:23:00;13.60;99.90
11836;DHT22;5977;51.972;7.640;2023-11-18T15:25:27;13.60;99.90
11836;DHT22;5977;51.972;7.640;2023-11-18T15:27:55;13.70;99.90
11836;DHT22;5977;51.972;7.640;2023-11-18T15:30:23;13.60;99.90
11836;DHT22;5977;51.972;7.640;2023-11-18T15:32:52;13.40;99.90
11836;DHT22;5977;51.972;7.640;2023-11-18T15:35:20;13.60;99.90
11836;DHT22;5977;51.972;7.640;2023-11-18T15:37:49;13.50;99.90
11836;DHT22;5977;51.972;7.640;2023-11-18T15:40:19;13.40;99.90
11836;DHT22;5977;51.972;7.640;2023-11-18T15:42:48;13.30;99.90
11836;DHT22;5977;51.972;7.640;2023-11-18T15:45:18;13.40;99.90
11836;DHT22;5977;51.972;7.640;2023-11-18T15:47:47;13.30;99.90
11836;DHT22;5977;51.972;7.640;2023-11-18T15:50:16;13.40;99.90
11836;DHT22;5977;51.972;7.640;2023-11-18T15:52:46;13.40;99.90
11836;DHT22;5977;51.972;7.640;2023-11-18T15:55:14;13.40;99.90
11836;DHT22;5977;51.972;7.640;2023-11-18T15:57:46;13.50;99.90
11836;DHT22;5977;51.972;7.640;2023-11-18T16:00:20;13.50;99.90
11836;DHT22;5977;51.972;7.640;2023-11-18T16:02:49;13.60;99.90
11836;DHT22;5977;51.972;7.640;2023-11-18T16:05:19;13.70;99.90
11836;DHT22;5977;51.972;7.640;2023-11-18T16:07:48;13.60;99.90
11836;DHT22;5977;51.972;7.640;2023-11-18T16:10:18;13.60;99.90
11836;DHT22;5977;51.972;7.640;2023-11-18T16:12:50;13.70;99.90
11836;DHT22;5977;51.972;7.640;2023-11-18T16:15:18;13.60;99.90
11836;DHT22;5977;51.972;7.640;2023-11-18T16:17:47;13.60;99.90
11836;DHT22;5977;51.972;7.640;2023-11-18T16:20:18;13.60;99.90